Aérodrome :
LOGIN :

S'inscrire | Disclaimer

   EN    FR    IT 

 










Légende :    VFR   VFR Marginal   IFR   IFR Intensif   IFR Très Intensif
Visi : 
Plafond : 
>= 8 km
>= 3000ft
5 à 8 km
1000 à 3000 ft
1500m à 5 km
500 à 1000 ft
800 à 1500m
200 à 500 ft
< 800m
< 200 ft
Symboles :   Orages  Brouillard  Fortes neiges  Fortes précipitations  Vent > 20 kt
SIGMETs :   Divers  Orages  Givrage  Turbulence  Onde Orograph.  Cendres Volcan.







- Altitude de l'aérodrome : 24 ft
- Code IATA : FAO


LPFR - Faro

DERNIER METAR :
  • 220300Z VRB02KT CAVOK 23/19 Q1014

METARs EXPIRÉS :
  • 220230Z 05003KT CAVOK 23/16 Q1014
  • 220200Z 03003KT CAVOK 23/15 Q1014
  • 220130Z 01004KT 340V040 CAVOK 25/15 Q1014
  • 220100Z 36005KT CAVOK 25/14 Q1014
  • 220030Z 36004KT 330V030 CAVOK 25/14 Q1014

TAF TAF LPFR
Valide du 22 à 00h jusqu'au 23 à 00h UTC


212300Z 2200/2224 VRB03KT CAVOK
BECMG 2209/2211 16008KT
BECMG 2213/2215 22008KT
BECMG 2217/2219 27008KT
BECMG 2221/2223 34005KT
Pas de NOTAMs connus pour ce terrain.



MET'MAP, la Météo Aéronautique d'un coup d'oeil ! - Copyright ORBIFLY Décembre 2007 - Disclaimer

ORBIFLY MET'MAP TEAM :

Programmation & Développement : Alexandra Zaïnal
Conception & Développement : Baudouin d'Aumeries
Co-Programmation & Développement : Marc-Olivier Méhu
Soutien technique & logistique : Manuel Goepfert

Contact : metmap@orbifly.com




SOURCES & CREDITS :

   NOAA